Time;durP1;ratioP1;P1;durP2;ratioP2;P2;SDS_P1;SDS_P2;PMS_P1;PMS_P2;Temp;Humidity;BMP_temperature;BMP_pressure;BME280_temperature;BME280_humidity;BME280_pressure;Samples;Min_cycle;Max_cycle;Signal;HPM_P1;HPM_P2
2023/12/06 00:02:21;;;;;;;2.90;2.67;;;3.50;62.90;;;;;;5059705;28;20308;-68
2023/12/06 00:04:48;;;;;;;3.23;2.97;;;3.40;62.80;;;;;;5070537;28;20651;-69
2023/12/06 00:07:14;;;;;;;3.07;2.87;;;3.50;62.30;;;;;;5073556;28;20248;-68
2023/12/06 00:09:41;;;;;;;3.07;2.77;;;3.50;62.60;;;;;;5068073;28;20201;-68
2023/12/06 00:12:07;;;;;;;3.50;2.70;;;3.50;62.70;;;;;;5070287;28;20237;-68
2023/12/06 00:14:34;;;;;;;3.20;2.90;;;3.50;62.50;;;;;;5073383;28;20249;-69
2023/12/06 00:17:00;;;;;;;3.13;2.93;;;3.50;63.10;;;;;;5070065;28;20233;-71
2023/12/06 00:19:27;;;;;;;2.93;2.73;;;3.50;63.10;;;;;;5066530;28;20616;-68
2023/12/06 00:21:55;;;;;;;2.70;2.60;;;3.60;62.70;;;;;;5074089;28;20271;-69
2023/12/06 00:24:21;;;;;;;2.83;2.63;;;3.60;62.60;;;;;;5072930;28;20702;-68
2023/12/06 00:26:48;;;;;;;4.63;2.80;;;3.70;62.40;;;;;;5073233;28;20205;-68
2023/12/06 00:29:14;;;;;;;2.80;2.60;;;3.70;62.40;;;;;;5069336;28;20209;-69
2023/12/06 00:31:41;;;;;;;2.60;2.40;;;3.70;62.40;;;;;;5072031;28;20208;-69
2023/12/06 00:34:08;;;;;;;2.70;2.50;;;3.70;62.40;;;;;;5068909;28;20209;-68
2023/12/06 00:36:35;;;;;;;2.60;2.43;;;3.70;62.40;;;;;;5064679;28;20376;-68
2023/12/06 00:39:01;;;;;;;2.50;2.30;;;3.80;62.50;;;;;;5072153;28;20611;-69
2023/12/06 00:41:28;;;;;;;2.77;2.53;;;3.90;62.20;;;;;;5072626;28;20236;-69
2023/12/06 00:43:54;;;;;;;2.23;2.13;;;3.90;62.00;;;;;;5072695;28;20327;-69
2023/12/06 00:46:21;;;;;;;2.73;2.50;;;3.80;62.50;;;;;;5069361;28;20229;-68
2023/12/06 00:48:48;;;;;;;2.40;2.30;;;3.80;62.50;;;;;;5070608;28;20580;-68
2023/12/06 00:51:15;;;;;;;2.40;2.30;;;3.80;62.50;;;;;;5064516;28;20205;-70
2023/12/06 00:53:42;;;;;;;2.10;2.00;;;3.90;62.60;;;;;;5071365;28;20205;-68
2023/12/06 00:56:09;;;;;;;2.57;2.37;;;3.90;62.60;;;;;;5064374;28;20297;-68
2023/12/06 00:58:35;;;;;;;2.30;2.20;;;4.00;62.70;;;;;;5072368;28;20240;-68
2023/12/06 01:01:02;;;;;;;2.20;2.10;;;4.00;62.00;;;;;;5071516;28;20233;-70
2023/12/06 01:03:28;;;;;;;2.10;2.00;;;4.00;62.20;;;;;;5069230;28;20780;-69
2023/12/06 01:05:55;;;;;;;2.30;2.20;;;4.00;62.40;;;;;;5070160;28;20252;-68
2023/12/06 01:08:22;;;;;;;2.10;2.00;;;4.00;62.70;;;;;;5072435;28;20625;-68
2023/12/06 01:10:48;;;;;;;2.30;2.20;;;4.00;62.70;;;;;;5069328;28;20209;-68
2023/12/06 01:13:15;;;;;;;2.37;2.27;;;3.90;62.80;;;;;;5064049;28;20201;-69
2023/12/06 01:15:41;;;;;;;1.80;1.70;;;3.90;63.30;;;;;;5069696;28;20248;-68
2023/12/06 01:18:08;;;;;;;2.00;1.90;;;3.90;63.50;;;;;;5072490;28;20228;-68
2023/12/06 01:20:38;;;;;;;2.10;2.00;;;3.90;63.60;;;;;;5066819;28;20667;-68
2023/12/06 01:23:04;;;;;;;1.73;1.63;;;3.90;64.10;;;;;;5071814;28;20704;-68
2023/12/06 01:25:31;;;;;;;2.07;1.97;;;3.90;64.60;;;;;;5071742;28;20328;-68
2023/12/06 01:27:57;;;;;;;2.27;1.80;;;3.80;64.90;;;;;;5069664;28;20225;-70
2023/12/06 01:30:24;;;;;;;1.90;1.80;;;3.80;65.20;;;;;;5066917;28;20205;-68
2023/12/06 01:32:50;;;;;;;2.20;1.90;;;3.90;65.20;;;;;;5067233;28;20292;-68
2023/12/06 01:35:17;;;;;;;1.80;1.80;;;3.90;65.00;;;;;;5064423;28;20719;-68
2023/12/06 01:37:44;;;;;;;1.80;1.70;;;3.90;65.30;;;;;;5069156;28;20243;-68
2023/12/06 01:40:10;;;;;;;2.00;1.90;;;3.90;65.80;;;;;;5070990;28;20231;-69
2023/12/06 01:42:37;;;;;;;1.90;1.80;;;3.90;65.70;;;;;;5071489;28;20556;-68
2023/12/06 01:45:03;;;;;;;2.10;2.00;;;3.90;65.80;;;;;;5068434;28;20715;-68
2023/12/06 01:47:30;;;;;;;1.80;1.70;;;3.90;66.10;;;;;;5066294;28;20205;-69
2023/12/06 01:49:57;;;;;;;2.30;2.07;;;3.90;66.10;;;;;;5068777;28;20244;-70
2023/12/06 01:52:23;;;;;;;1.80;1.80;;;3.90;65.90;;;;;;5064258;28;20238;-69
2023/12/06 01:54:51;;;;;;;1.87;1.77;;;3.90;65.80;;;;;;5068722;28;20260;-69
2023/12/06 01:57:17;;;;;;;1.80;1.70;;;3.90;65.30;;;;;;5070666;28;20209;-68
2023/12/06 01:59:44;;;;;;;1.83;1.80;;;3.90;65.70;;;;;;5071714;28;20205;-68
2023/12/06 02:02:10;;;;;;;1.70;1.70;;;3.90;65.00;;;;;;5067941;28;20232;-68
2023/12/06 02:04:37;;;;;;;1.73;1.67;;;4.00;64.90;;;;;;5070908;28;20237;-68
2023/12/06 02:07:03;;;;;;;1.63;1.63;;;3.90;65.30;;;;;;5069733;28;20237;-69
2023/12/06 02:09:30;;;;;;;2.00;1.90;;;3.90;65.20;;;;;;5071361;28;20240;-68
2023/12/06 02:11:56;;;;;;;1.70;1.70;;;4.00;64.80;;;;;;5068846;28;20235;-68
2023/12/06 02:14:23;;;;;;;1.63;1.63;;;3.90;64.70;;;;;;5063228;28;20236;-68
2023/12/06 02:16:50;;;;;;;1.87;1.80;;;4.00;64.60;;;;;;5065940;28;20233;-69
2023/12/06 02:19:16;;;;;;;1.60;1.60;;;4.00;64.80;;;;;;5070494;28;20241;-69
2023/12/06 02:21:42;;;;;;;1.80;1.70;;;4.00;64.40;;;;;;5066854;28;20244;-68
2023/12/06 02:24:09;;;;;;;1.80;1.70;;;3.90;65.10;;;;;;5069314;28;20777;-69
2023/12/06 02:26:35;;;;;;;1.73;1.63;;;3.90;65.30;;;;;;5069063;28;20251;-68
2023/12/06 02:29:02;;;;;;;1.73;1.73;;;4.00;65.00;;;;;;5068337;28;20209;-68
2023/12/06 02:31:31;;;;;;;1.90;1.80;;;4.00;65.20;;;;;;5071589;28;20244;-70
2023/12/06 02:33:58;;;;;;;1.67;1.67;;;4.00;65.20;;;;;;5070957;28;20282;-68
2023/12/06 02:36:24;;;;;;;2.03;1.93;;;4.00;65.20;;;;;;5068599;28;20671;-68
2023/12/06 02:38:51;;;;;;;1.90;1.80;;;4.00;65.20;;;;;;5065497;28;20229;-70
2023/12/06 02:41:17;;;;;;;1.80;1.70;;;3.90;65.80;;;;;;5071291;28;20247;-69
2023/12/06 02:43:44;;;;;;;2.00;1.90;;;3.90;65.90;;;;;;5069471;28;20221;-68
2023/12/06 02:46:10;;;;;;;2.00;1.90;;;3.90;66.00;;;;;;5067565;28;20781;-68
2023/12/06 02:48:37;;;;;;;1.90;1.80;;;3.90;65.90;;;;;;5063048;28;20650;-68
2023/12/06 02:51:05;;;;;;;1.77;1.70;;;4.00;66.00;;;;;;5070565;28;20205;-69
2023/12/06 02:53:31;;;;;;;2.00;1.90;;;3.90;66.20;;;;;;5072217;28;20281;-68
2023/12/06 02:55:58;;;;;;;1.73;1.73;;;3.90;66.60;;;;;;5071825;28;20224;-70
2023/12/06 02:58:24;;;;;;;1.80;1.77;;;3.90;66.70;;;;;;5064056;28;20212;-68
2023/12/06 03:00:51;;;;;;;1.70;1.70;;;3.90;66.80;;;;;;5070569;28;20585;-69
2023/12/06 03:03:17;;;;;;;1.80;1.70;;;4.00;66.80;;;;;;5061144;28;20257;-68
2023/12/06 03:05:44;;;;;;;1.70;1.70;;;4.00;66.40;;;;;;5069913;28;20233;-68
2023/12/06 03:08:14;;;;;;;1.73;1.70;;;4.00;66.40;;;;;;5074848;28;20242;-70
2023/12/06 03:10:40;;;;;;;1.50;1.50;;;4.00;66.50;;;;;;5074680;28;20208;-68
2023/12/06 03:13:07;;;;;;;2.00;1.90;;;3.80;67.10;;;;;;5068634;28;20796;-69
2023/12/06 03:15:33;;;;;;;1.90;1.80;;;3.80;68.00;;;;;;5071653;28;20257;-69
2023/12/06 03:18:00;;;;;;;1.90;1.90;;;3.80;68.00;;;;;;5071680;28;20208;-68
2023/12/06 03:20:26;;;;;;;2.00;1.90;;;3.80;68.30;;;;;;5068804;28;20684;-68
2023/12/06 03:22:53;;;;;;;1.70;1.60;;;3.90;68.20;;;;;;5071328;28;20314;-70
2023/12/06 03:25:20;;;;;;;1.77;1.70;;;3.80;67.90;;;;;;5073431;28;20229;-68
2023/12/06 03:27:46;;;;;;;1.87;1.83;;;3.80;68.40;;;;;;5073588;28;20205;-68
2023/12/06 03:30:13;;;;;;;2.00;1.90;;;3.80;68.50;;;;;;5072315;28;20258;-68
2023/12/06 03:32:39;;;;;;;2.20;2.10;;;3.70;69.00;;;;;;5066644;28;20248;-70
2023/12/06 03:35:06;;;;;;;1.73;1.70;;;3.70;69.20;;;;;;5074012;28;20290;-69
2023/12/06 03:37:32;;;;;;;1.90;1.80;;;3.70;69.20;;;;;;5060029;28;20206;-68
2023/12/06 03:39:59;;;;;;;2.30;2.20;;;3.70;69.90;;;;;;5070530;28;20354;-68
2023/12/06 03:42:25;;;;;;;1.90;1.80;;;3.70;69.70;;;;;;5071193;28;20235;-68
2023/12/06 03:44:52;;;;;;;2.10;2.00;;;3.80;69.70;;;;;;5072215;28;20286;-70
2023/12/06 03:47:18;;;;;;;1.83;1.80;;;3.80;69.90;;;;;;5073430;28;20237;-69
2023/12/06 03:49:45;;;;;;;2.27;2.17;;;3.70;70.50;;;;;;5073900;28;20664;-68
2023/12/06 03:52:11;;;;;;;1.90;1.80;;;3.70;70.70;;;;;;5069352;28;20259;-68
2023/12/06 03:54:38;;;;;;;2.00;1.80;;;3.70;71.10;;;;;;5069284;28;20232;-68
2023/12/06 03:57:04;;;;;;;1.90;1.80;;;3.70;71.20;;;;;;5073712;28;20306;-70
2023/12/06 03:59:31;;;;;;;2.03;1.93;;;3.60;71.30;;;;;;5074101;28;20632;-69
2023/12/06 04:01:57;;;;;;;2.00;1.90;;;3.60;71.30;;;;;;5072567;28;20244;-69
2023/12/06 04:04:24;;;;;;;2.10;2.00;;;3.60;71.70;;;;;;5073341;28;20217;-68
2023/12/06 04:06:51;;;;;;;2.10;1.93;;;3.60;71.30;;;;;;5072897;28;20215;-70
2023/12/06 04:09:18;;;;;;;2.30;2.20;;;3.70;71.40;;;;;;5070051;28;20209;-68
2023/12/06 04:11:44;;;;;;;2.07;1.97;;;3.60;71.30;;;;;;5070436;28;20283;-68
2023/12/06 04:14:10;;;;;;;1.97;1.87;;;3.80;71.60;;;;;;5067918;28;20237;-68
2023/12/06 04:16:37;;;;;;;2.07;1.97;;;3.70;71.40;;;;;;5068104;28;20214;-68
2023/12/06 04:19:03;;;;;;;2.10;2.00;;;3.60;71.90;;;;;;5070886;28;20240;-69
2023/12/06 04:21:30;;;;;;;5.63;2.13;;;3.60;72.00;;;;;;5073475;28;20204;-68
2023/12/06 04:23:57;;;;;;;2.10;2.00;;;3.70;71.40;;;;;;5072512;28;20213;-69
2023/12/06 04:26:23;;;;;;;2.20;2.10;;;3.70;70.80;;;;;;5061415;28;20729;-68
2023/12/06 04:28:50;;;;;;;2.10;2.00;;;3.60;71.30;;;;;;5072100;28;20236;-68
2023/12/06 04:31:16;;;;;;;2.20;2.10;;;3.60;71.80;;;;;;5072979;28;20241;-70
2023/12/06 04:33:43;;;;;;;2.10;1.90;;;3.60;71.30;;;;;;5064641;28;20216;-68
2023/12/06 04:36:09;;;;;;;2.30;2.20;;;3.60;71.90;;;;;;5065001;28;20230;-68
2023/12/06 04:38:36;;;;;;;2.70;1.93;;;3.60;71.30;;;;;;5066251;28;20201;-68
2023/12/06 04:41:02;;;;;;;2.30;2.10;;;3.60;71.30;;;;;;5072973;28;20262;-70
2023/12/06 04:43:29;;;;;;;2.27;2.17;;;3.70;71.40;;;;;;5069111;28;20249;-69
2023/12/06 04:45:55;;;;;;;2.40;2.30;;;3.60;71.30;;;;;;5064984;28;20257;-68
2023/12/06 04:48:22;;;;;;;2.20;2.10;;;3.60;71.30;;;;;;5072853;28;20293;-68
2023/12/06 04:50:49;;;;;;;2.20;2.10;;;3.60;71.40;;;;;;5071899;28;20552;-68
2023/12/06 04:53:15;;;;;;;2.07;1.87;;;3.60;71.30;;;;;;5067963;28;20237;-69
2023/12/06 04:55:42;;;;;;;2.30;2.20;;;3.60;71.30;;;;;;5070781;28;20253;-69
2023/12/06 04:58:08;;;;;;;2.10;2.00;;;3.50;72.10;;;;;;5072643;28;20240;-68
2023/12/06 05:00:36;;;;;;;2.20;2.00;;;3.60;71.70;;;;;;5064952;28;20209;-69
2023/12/06 05:03:02;;;;;;;2.20;2.10;;;3.70;71.40;;;;;;5067737;28;20237;-68
2023/12/06 05:05:29;;;;;;;2.40;2.20;;;3.60;71.30;;;;;;5072256;28;20243;-68
2023/12/06 05:07:56;;;;;;;2.97;2.10;;;3.60;71.30;;;;;;5069995;28;20703;-68
2023/12/06 05:10:23;;;;;;;2.47;2.27;;;3.50;72.00;;;;;;5068224;28;20696;-69
2023/12/06 05:12:49;;;;;;;2.43;2.23;;;3.60;72.30;;;;;;5071139;28;20671;-72
2023/12/06 05:15:16;;;;;;;2.10;2.00;;;3.60;71.70;;;;;;5072158;28;20373;-68
2023/12/06 05:17:42;;;;;;;3.63;2.23;;;3.60;72.60;;;;;;5067552;28;20209;-70
2023/12/06 05:20:10;;;;;;;2.63;2.47;;;3.60;72.50;;;;;;5064773;28;20249;-68
2023/12/06 05:22:37;;;;;;;2.47;2.27;;;3.60;72.10;;;;;;5068334;28;20205;-68
2023/12/06 05:25:04;;;;;;;2.10;2.00;;;3.50;71.70;;;;;;5064823;28;20225;-68
2023/12/06 05:27:30;;;;;;;2.90;2.40;;;3.50;72.80;;;;;;5064526;28;20657;-69
2023/12/06 05:29:57;;;;;;;3.80;2.70;;;3.40;73.40;;;;;;5062659;28;20233;-68
2023/12/06 05:32:23;;;;;;;2.60;2.40;;;3.40;73.50;;;;;;5050841;28;20279;-69
2023/12/06 05:34:50;;;;;;;2.50;2.27;;;3.60;72.50;;;;;;5038052;28;20325;-68
2023/12/06 05:37:16;;;;;;;2.87;2.67;;;3.60;72.30;;;;;;5068041;28;20229;-68
2023/12/06 05:39:43;;;;;;;2.90;2.70;;;3.60;72.40;;;;;;5066042;28;20695;-67
2023/12/06 05:42:10;;;;;;;2.90;2.63;;;3.60;72.70;;;;;;5062122;28;20259;-70
2023/12/06 05:44:36;;;;;;;2.37;2.27;;;3.50;73.00;;;;;;5058489;28;20222;-68
2023/12/06 05:47:03;;;;;;;2.80;2.20;;;3.50;72.80;;;;;;5062203;28;20215;-68
2023/12/06 05:49:30;;;;;;;2.63;2.30;;;3.50;73.10;;;;;;5058718;28;20619;-70
2023/12/06 05:51:56;;;;;;;2.60;2.50;;;3.50;72.50;;;;;;5067323;28;20201;-68
2023/12/06 05:54:23;;;;;;;6.90;4.20;;;3.50;72.40;;;;;;5061305;28;20233;-70
2023/12/06 05:56:49;;;;;;;2.60;2.40;;;3.50;72.50;;;;;;5058276;28;20205;-68
2023/12/06 05:59:16;;;;;;;2.50;2.30;;;3.50;72.50;;;;;;5063482;28;20296;-68
2023/12/06 06:01:43;;;;;;;2.60;2.50;;;3.50;72.20;;;;;;5069770;28;20201;-69
2023/12/06 06:04:09;;;;;;;2.77;2.57;;;3.40;72.20;;;;;;5063449;28;20676;-68
2023/12/06 06:06:36;;;;;;;2.63;2.43;;;3.50;72.10;;;;;;5067231;28;20645;-69
2023/12/06 06:09:03;;;;;;;2.27;2.10;;;3.50;72.70;;;;;;5068632;28;20722;-70
2023/12/06 06:11:29;;;;;;;2.50;2.37;;;3.50;71.80;;;;;;5052060;28;20206;-68
2023/12/06 06:13:56;;;;;;;2.50;2.40;;;3.40;72.10;;;;;;5051586;28;20304;-67
2023/12/06 06:16:22;;;;;;;2.30;2.20;;;3.50;72.10;;;;;;5061185;28;20225;-67
2023/12/06 06:18:49;;;;;;;2.50;2.30;;;3.50;71.70;;;;;;5061548;28;20197;-69
2023/12/06 06:21:16;;;;;;;2.67;2.47;;;3.50;71.60;;;;;;5061978;28;20237;-69
2023/12/06 06:23:43;;;;;;;2.90;2.50;;;3.50;72.00;;;;;;5067288;28;20221;-68
2023/12/06 06:26:10;;;;;;;2.67;2.47;;;3.50;71.30;;;;;;5061235;28;20226;-67
2023/12/06 06:28:36;;;;;;;2.87;2.67;;;3.50;71.70;;;;;;5058773;28;20240;-67
2023/12/06 06:31:03;;;;;;;2.57;2.40;;;3.50;71.90;;;;;;5066642;28;20236;-66
2023/12/06 06:33:30;;;;;;;2.47;2.27;;;3.50;71.30;;;;;;5070039;28;20221;-69
2023/12/06 06:35:57;;;;;;;3.00;2.80;;;3.50;71.80;;;;;;5074573;28;20252;-67
2023/12/06 06:38:23;;;;;;;2.70;2.50;;;3.50;71.80;;;;;;5075148;28;20282;-67
2023/12/06 06:40:50;;;;;;;2.30;2.20;;;3.50;71.80;;;;;;5067889;28;20267;-67
2023/12/06 06:43:17;;;;;;;2.30;2.20;;;3.60;71.90;;;;;;5065649;28;20211;-69
2023/12/06 06:45:44;;;;;;;2.60;2.30;;;3.60;71.10;;;;;;5068298;28;20221;-67
2023/12/06 06:48:10;;;;;;;4.13;2.83;;;3.60;71.30;;;;;;5067825;28;20237;-67
2023/12/06 06:50:37;;;;;;;2.73;2.53;;;3.50;71.30;;;;;;5065372;28;20208;-67
2023/12/06 06:53:03;;;;;;;2.87;2.67;;;3.60;71.30;;;;;;5066843;28;20255;-68
2023/12/06 06:55:30;;;;;;;2.93;2.63;;;3.60;71.30;;;;;;5062978;28;20225;-67
2023/12/06 06:57:58;;;;;;;2.70;2.50;;;3.70;70.70;;;;;;5054951;28;20794;-68
2023/12/06 07:00:25;;;;;;;2.90;2.70;;;3.60;71.10;;;;;;5070937;28;20603;-68
2023/12/06 07:02:51;;;;;;;2.53;2.33;;;3.60;71.30;;;;;;5069462;28;20236;-69
2023/12/06 07:05:18;;;;;;;2.80;2.60;;;3.60;71.30;;;;;;5075125;28;20287;-68
2023/12/06 07:07:45;;;;;;;2.50;2.30;;;3.60;71.40;;;;;;5068320;28;20642;-67
2023/12/06 07:10:11;;;;;;;5.73;2.60;;;3.60;71.30;;;;;;5066031;28;20239;-66
2023/12/06 07:12:39;;;;;;;2.60;2.40;;;3.60;71.40;;;;;;5065569;28;20237;-68
2023/12/06 07:15:05;;;;;;;2.50;2.30;;;3.70;71.10;;;;;;5068217;28;20786;-67
2023/12/06 07:17:32;;;;;;;2.67;2.57;;;3.70;70.50;;;;;;5071208;28;20657;-70
2023/12/06 07:19:59;;;;;;;3.07;2.47;;;3.70;70.10;;;;;;5069922;28;20638;-67
2023/12/06 07:22:25;;;;;;;3.53;2.63;;;3.60;70.70;;;;;;5067972;28;20193;-67
2023/12/06 07:24:52;;;;;;;2.80;2.60;;;3.60;70.80;;;;;;5074226;28;20232;-67
2023/12/06 07:27:19;;;;;;;2.77;2.57;;;3.60;70.90;;;;;;5073788;28;20205;-68
2023/12/06 07:29:46;;;;;;;3.03;2.83;;;3.70;70.70;;;;;;5067218;28;20577;-68
2023/12/06 07:32:13;;;;;;;5.93;2.90;;;3.60;70.60;;;;;;5058941;28;22522;-67
2023/12/06 07:34:39;;;;;;;3.50;3.03;;;3.60;70.30;;;;;;5065639;28;20294;-68
2023/12/06 07:37:06;;;;;;;3.00;2.80;;;3.60;70.40;;;;;;5064011;28;20296;-67
2023/12/06 07:39:32;;;;;;;3.27;3.00;;;3.70;70.20;;;;;;5073484;28;20201;-67
2023/12/06 07:41:59;;;;;;;2.97;2.67;;;3.70;70.00;;;;;;5068581;28;20262;-67
2023/12/06 07:44:25;;;;;;;2.60;2.50;;;3.70;70.10;;;;;;5067491;28;20713;-70
2023/12/06 07:46:52;;;;;;;2.50;2.30;;;3.70;69.60;;;;;;5069288;28;20258;-67
2023/12/06 07:49:18;;;;;;;2.70;2.50;;;3.70;69.30;;;;;;5070692;28;20252;-67
2023/12/06 07:51:45;;;;;;;2.70;2.50;;;3.80;69.60;;;;;;5068917;28;20240;-67
2023/12/06 07:54:12;;;;;;;2.83;2.60;;;3.80;68.80;;;;;;5066298;28;20203;-67
2023/12/06 07:56:40;;;;;;;2.50;2.30;;;3.90;68.90;;;;;;5069307;28;20282;-67
2023/12/06 07:59:06;;;;;;;2.90;2.70;;;4.00;68.00;;;;;;5066093;28;20221;-68
2023/12/06 08:01:33;;;;;;;2.27;2.17;;;4.00;68.20;;;;;;5070126;28;20268;-67
2023/12/06 08:04:00;;;;;;;2.67;2.50;;;3.90;68.20;;;;;;5069270;28;20262;-67
2023/12/06 08:06:27;;;;;;;2.73;2.37;;;3.90;68.20;;;;;;5065638;28;20640;-67
2023/12/06 08:08:53;;;;;;;2.83;2.53;;;3.90;68.40;;;;;;5065006;28;20239;-67
2023/12/06 08:11:20;;;;;;;2.53;2.43;;;4.00;68.00;;;;;;5058880;28;20237;-69
2023/12/06 08:13:47;;;;;;;2.60;2.40;;;3.90;68.00;;;;;;5066673;28;20209;-70
2023/12/06 08:16:14;;;;;;;2.23;2.13;;;4.00;67.50;;;;;;5064949;28;20333;-68
2023/12/06 08:18:40;;;;;;;3.30;2.47;;;3.80;68.20;;;;;;5064759;28;20232;-67
2023/12/06 08:21:08;;;;;;;2.77;2.57;;;3.90;68.40;;;;;;5067432;28;20233;-67
2023/12/06 08:23:35;;;;;;;2.63;2.43;;;4.00;68.00;;;;;;5060870;28;20206;-67
2023/12/06 08:26:01;;;;;;;2.70;2.50;;;4.00;68.00;;;;;;5059858;28;20236;-67
2023/12/06 08:28:28;;;;;;;2.50;2.30;;;4.10;67.40;;;;;;5050816;28;20699;-67
2023/12/06 08:30:54;;;;;;;2.60;2.50;;;4.10;67.30;;;;;;5063032;28;20656;-67
2023/12/06 08:33:23;;;;;;;2.63;2.43;;;4.00;67.30;;;;;;5066425;28;20209;-65
2023/12/06 08:35:49;;;;;;;2.80;2.60;;;4.00;67.30;;;;;;5070052;28;20221;-66
2023/12/06 08:38:16;;;;;;;2.53;2.40;;;4.10;67.30;;;;;;5065671;28;20659;-68
2023/12/06 08:40:43;;;;;;;2.30;2.20;;;4.10;67.00;;;;;;5067803;28;20241;-66
2023/12/06 08:43:09;;;;;;;2.43;2.30;;;4.10;66.80;;;;;;5062742;28;20237;-66
2023/12/06 08:45:35;;;;;;;2.40;2.30;;;4.10;67.00;;;;;;5064649;28;20258;-66
2023/12/06 08:48:04;;;;;;;2.33;2.23;;;4.10;66.60;;;;;;5070006;28;20205;-72
2023/12/06 08:50:30;;;;;;;2.17;2.07;;;4.60;67.50;;;;;;5068044;28;20323;-69
2023/12/06 08:52:57;;;;;;;2.33;2.13;;;4.70;64.30;;;;;;5065547;28;20236;-69
2023/12/06 08:55:25;;;;;;;2.33;2.17;;;4.70;64.20;;;;;;5053907;28;20223;-68
2023/12/06 08:57:52;;;;;;;2.50;2.40;;;4.70;63.30;;;;;;5061113;28;20202;-66
2023/12/06 09:00:19;;;;;;;3.87;2.33;;;4.60;63.50;;;;;;5060084;28;20267;-64
2023/12/06 09:05:20;;;;;;;2.30;2.20;;;4.50;63.80;;;;;;5330343;22;20292;-70
2023/12/06 09:07:47;;;;;;;2.53;2.40;;;4.40;64.50;;;;;;5044396;28;20268;-69
2023/12/06 09:10:13;;;;;;;2.20;2.10;;;4.50;64.30;;;;;;5039174;28;20315;-69
2023/12/06 09:12:40;;;;;;;2.50;2.30;;;4.60;63.30;;;;;;5047296;28;20203;-69
2023/12/06 09:15:07;;;;;;;2.20;2.10;;;4.60;63.70;;;;;;5051712;28;20227;-69
2023/12/06 09:17:33;;;;;;;3.07;2.23;;;4.50;63.90;;;;;;5036530;28;20206;-69
2023/12/06 09:20:00;;;;;;;2.43;2.33;;;4.60;63.30;;;;;;5047425;28;20234;-70
2023/12/06 09:22:26;;;;;;;2.47;2.30;;;4.80;63.40;;;;;;5045569;28;20198;-71
2023/12/06 09:24:53;;;;;;;2.47;2.27;;;4.80;63.40;;;;;;5046908;28;20276;-69
2023/12/06 09:27:20;;;;;;;2.60;2.50;;;4.70;63.30;;;;;;5051712;28;20206;-70
2023/12/06 09:29:46;;;;;;;2.27;2.17;;;4.80;63.40;;;;;;5040898;28;20742;-70
2023/12/06 09:32:13;;;;;;;2.27;2.17;;;4.80;63.40;;;;;;5043834;28;20214;-70
2023/12/06 09:34:40;;;;;;;2.40;2.30;;;4.80;63.40;;;;;;5051726;28;20242;-70
2023/12/06 09:37:07;;;;;;;2.70;2.50;;;5.00;63.00;;;;;;5049276;28;20676;-70
2023/12/06 09:39:33;;;;;;;2.40;2.10;;;4.90;63.00;;;;;;5043375;28;20204;-71
2023/12/06 09:42:01;;;;;;;2.90;1.97;;;4.90;63.60;;;;;;5051338;28;20205;-70
2023/12/06 09:44:28;;;;;;;2.40;2.30;;;4.90;63.10;;;;;;5042850;28;20216;-70
2023/12/06 09:46:54;;;;;;;2.10;2.00;;;4.90;62.80;;;;;;5048632;28;20204;-70
2023/12/06 09:49:21;;;;;;;2.30;2.13;;;5.00;63.20;;;;;;5040969;28;20211;-70
2023/12/06 09:51:47;;;;;;;1.90;1.80;;;4.90;63.10;;;;;;5050598;28;20219;-69
2023/12/06 09:54:14;;;;;;;2.30;2.20;;;4.90;63.00;;;;;;5041752;28;20206;-69
2023/12/06 09:56:40;;;;;;;2.90;2.40;;;4.90;63.20;;;;;;5045378;28;20287;-70
2023/12/06 09:59:07;;;;;;;2.50;2.40;;;4.90;63.50;;;;;;5048564;28;20218;-71
2023/12/06 10:01:34;;;;;;;2.67;2.57;;;4.80;63.40;;;;;;5045685;28;20210;-71
2023/12/06 10:04:00;;;;;;;2.20;2.10;;;4.80;63.40;;;;;;5044820;28;20228;-71
2023/12/06 10:06:27;;;;;;;2.37;2.27;;;4.80;63.50;;;;;;5042202;28;20228;-71
2023/12/06 10:08:53;;;;;;;2.40;2.30;;;4.80;63.40;;;;;;5047237;28;20216;-69
2023/12/06 10:11:20;;;;;;;2.83;2.63;;;4.90;63.50;;;;;;5040172;28;20202;-70
2023/12/06 10:13:47;;;;;;;2.60;2.40;;;4.90;63.50;;;;;;5048519;28;20547;-70
2023/12/06 10:16:14;;;;;;;2.80;2.60;;;5.00;63.40;;;;;;5043368;28;20287;-70
2023/12/06 10:18:40;;;;;;;2.17;2.07;;;5.10;63.30;;;;;;5042064;28;20203;-70
2023/12/06 10:21:07;;;;;;;2.70;2.50;;;5.30;62.60;;;;;;5036144;28;20211;-70
2023/12/06 10:23:34;;;;;;;2.40;2.30;;;5.40;62.20;;;;;;5042808;28;20254;-71
2023/12/06 10:26:03;;;;;;;2.47;2.37;;;5.20;62.40;;;;;;5042932;28;20233;-70
2023/12/06 10:28:30;;;;;;;2.50;2.37;;;5.30;62.20;;;;;;5051204;28;20237;-70
2023/12/06 10:30:56;;;;;;;2.53;2.43;;;5.20;62.00;;;;;;5051198;28;20622;-70
2023/12/06 10:33:23;;;;;;;2.73;2.50;;;5.20;62.00;;;;;;5050081;28;20249;-70
2023/12/06 10:35:50;;;;;;;2.60;2.50;;;5.30;61.70;;;;;;5050479;28;20223;-71
2023/12/06 10:38:16;;;;;;;2.60;2.50;;;5.40;61.90;;;;;;5036656;28;20259;-70
2023/12/06 10:40:43;;;;;;;2.57;2.37;;;5.40;61.30;;;;;;5027728;28;20211;-70
2023/12/06 10:43:10;;;;;;;3.10;2.90;;;5.50;60.50;;;;;;5040343;28;20212;-70
2023/12/06 10:45:36;;;;;;;3.03;2.70;;;5.60;60.20;;;;;;5037900;28;20235;-70
2023/12/06 10:48:03;;;;;;;2.90;2.70;;;5.50;59.60;;;;;;5041037;28;20230;-72
2023/12/06 10:50:30;;;;;;;2.70;2.50;;;5.40;61.00;;;;;;5043277;28;20248;-71
2023/12/06 10:52:57;;;;;;;2.73;2.57;;;5.40;61.10;;;;;;5046763;28;20208;-71
2023/12/06 10:55:24;;;;;;;3.20;2.70;;;5.40;61.00;;;;;;5044998;28;20235;-70
2023/12/06 10:57:50;;;;;;;2.80;2.70;;;5.40;60.90;;;;;;5049962;28;20237;-71
2023/12/06 11:00:17;;;;;;;2.57;2.47;;;5.30;61.30;;;;;;5055699;28;20214;-71
2023/12/06 11:02:44;;;;;;;2.87;2.67;;;5.20;61.80;;;;;;5036546;28;21747;-70
2023/12/06 11:05:10;;;;;;;3.60;2.77;;;5.30;61.40;;;;;;5031708;28;21176;-70
2023/12/06 11:07:37;;;;;;;2.77;2.57;;;5.30;61.70;;;;;;5033383;28;20217;-71
2023/12/06 11:10:08;;;;;;;2.93;2.73;;;5.30;61.00;;;;;;5046924;28;20254;-71
2023/12/06 11:12:38;;;;;;;3.47;2.70;;;5.30;61.50;;;;;;5050118;28;20211;-70
2023/12/06 11:15:04;;;;;;;3.20;2.50;;;5.50;61.00;;;;;;5050549;28;20220;-69
2023/12/06 11:17:31;;;;;;;2.60;2.50;;;5.50;60.00;;;;;;5053435;28;20677;-71
2023/12/06 11:19:57;;;;;;;2.87;2.67;;;5.60;59.90;;;;;;5054497;28;20356;-71
2023/12/06 11:22:24;;;;;;;2.93;2.60;;;5.40;60.40;;;;;;5043984;28;20821;-71
2023/12/06 11:24:51;;;;;;;2.80;2.63;;;5.40;60.80;;;;;;5042094;28;20257;-71
2023/12/06 11:27:18;;;;;;;2.90;2.70;;;5.40;60.40;;;;;;5045984;28;20218;-71
2023/12/06 11:29:44;;;;;;;3.33;3.03;;;5.30;60.90;;;;;;5047377;28;20213;-70
2023/12/06 11:32:11;;;;;;;3.33;3.13;;;5.40;60.60;;;;;;5036837;28;20247;-71
2023/12/06 11:34:39;;;;;;;3.13;2.90;;;5.40;60.80;;;;;;5032572;28;20286;-71
2023/12/06 11:37:07;;;;;;;3.30;3.00;;;5.40;60.50;;;;;;5024844;28;20797;-71
2023/12/06 11:39:34;;;;;;;2.80;2.60;;;5.30;60.60;;;;;;5028611;28;20327;-71
2023/12/06 11:42:00;;;;;;;2.67;2.57;;;5.40;60.40;;;;;;5032433;28;20206;-70
2023/12/06 11:44:27;;;;;;;3.13;2.83;;;5.40;60.80;;;;;;5030100;28;20241;-70
2023/12/06 11:46:55;;;;;;;2.80;2.60;;;5.40;60.30;;;;;;5025289;28;20610;-70
2023/12/06 11:49:21;;;;;;;3.97;2.73;;;5.30;60.30;;;;;;5025033;28;20206;-70
2023/12/06 11:51:48;;;;;;;3.00;2.70;;;5.40;60.00;;;;;;5026773;28;20219;-71
2023/12/06 11:54:15;;;;;;;3.00;2.80;;;5.30;60.30;;;;;;5027085;28;20667;-71
2023/12/06 11:56:42;;;;;;;3.67;2.80;;;5.20;60.60;;;;;;5006244;28;20249;-72
2023/12/06 11:59:08;;;;;;;3.27;2.97;;;5.20;60.80;;;;;;5029467;28;20618;-71
2023/12/06 12:01:35;;;;;;;3.83;2.70;;;5.30;59.80;;;;;;5026370;28;20269;-71
2023/12/06 12:04:01;;;;;;;3.03;2.83;;;5.20;59.50;;;;;;5026070;28;20741;-71
2023/12/06 12:06:28;;;;;;;3.27;3.00;;;5.20;60.00;;;;;;5021345;28;20244;-71
2023/12/06 12:08:54;;;;;;;2.97;2.77;;;5.40;59.50;;;;;;5024399;28;20211;-71
2023/12/06 12:11:21;;;;;;;2.90;2.70;;;5.30;59.70;;;;;;5025139;28;20212;-71
2023/12/06 12:13:47;;;;;;;2.87;2.73;;;5.30;59.40;;;;;;5025448;28;20213;-71
2023/12/06 12:16:15;;;;;;;3.77;2.97;;;5.30;59.30;;;;;;5029284;28;20255;-71
2023/12/06 12:18:42;;;;;;;3.23;3.00;;;5.20;59.80;;;;;;5021313;28;20218;-71
2023/12/06 12:21:10;;;;;;;3.00;2.80;;;5.30;59.30;;;;;;5030840;28;20225;-71
2023/12/06 12:23:36;;;;;;;3.70;2.93;;;5.20;59.40;;;;;;5031948;28;20277;-72
2023/12/06 12:26:03;;;;;;;3.20;2.90;;;5.20;59.20;;;;;;5024275;28;20344;-72
2023/12/06 12:28:30;;;;;;;2.90;2.70;;;5.30;59.30;;;;;;5026795;28;20224;-70
2023/12/06 12:30:56;;;;;;;2.93;2.60;;;5.30;59.30;;;;;;5012216;28;20208;-69
2023/12/06 12:33:23;;;;;;;5.40;3.40;;;5.30;58.80;;;;;;5029176;28;20210;-71
2023/12/06 12:35:50;;;;;;;3.17;2.83;;;5.30;59.00;;;;;;5025006;28;20254;-71
2023/12/06 12:38:16;;;;;;;3.50;3.20;;;5.20;59.20;;;;;;5030160;28;20217;-71
2023/12/06 12:40:43;;;;;;;3.27;3.00;;;5.20;58.90;;;;;;5029975;28;20236;-69
2023/12/06 12:43:10;;;;;;;3.30;3.00;;;5.20;58.90;;;;;;5020234;28;20235;-70
2023/12/06 12:45:36;;;;;;;3.17;2.97;;;5.20;58.80;;;;;;5025066;28;20228;-71
2023/12/06 12:48:03;;;;;;;3.00;2.80;;;5.20;59.20;;;;;;5019321;28;20239;-71
2023/12/06 12:50:31;;;;;;;2.90;2.67;;;5.10;59.10;;;;;;5018047;28;20207;-72
2023/12/06 12:52:57;;;;;;;3.33;3.03;;;5.10;59.10;;;;;;5022923;28;20539;-71
2023/12/06 12:55:24;;;;;;;3.07;2.87;;;5.10;59.10;;;;;;5025150;28;20275;-71
2023/12/06 12:57:50;;;;;;;3.20;2.93;;;5.20;59.20;;;;;;5031581;28;20238;-72